createdAt,value
2018-08-09T00:02:02.281Z,83.30
2018-08-09T00:04:29.803Z,83.20
2018-08-09T00:06:57.361Z,83.30
2018-08-09T00:09:24.889Z,83.20
2018-08-09T00:11:52.423Z,83.30
2018-08-09T00:14:19.885Z,83.60
2018-08-09T00:16:47.391Z,83.90
2018-08-09T00:19:14.903Z,83.70
2018-08-09T00:21:42.399Z,84.00
2018-08-09T00:24:09.886Z,83.80
2018-08-09T00:26:37.409Z,83.60
2018-08-09T00:29:04.969Z,83.80
2018-08-09T00:31:32.463Z,83.40
2018-08-09T00:33:59.957Z,83.00
2018-08-09T00:36:27.505Z,82.90
2018-08-09T00:38:54.980Z,83.00
2018-08-09T00:41:22.463Z,83.00
2018-08-09T00:43:50.044Z,82.80
2018-08-09T00:46:17.543Z,82.60
2018-08-09T00:48:45.008Z,82.90
2018-08-09T00:51:12.531Z,82.90
2018-08-09T00:53:40.078Z,83.00
2018-08-09T00:56:07.575Z,83.20
2018-08-09T00:58:35.099Z,83.30
2018-08-09T01:01:02.603Z,83.20
2018-08-09T01:03:30.257Z,83.00
2018-08-09T01:05:58.116Z,83.00
2018-08-09T01:08:25.766Z,82.90
2018-08-09T01:10:53.299Z,82.80
2018-08-09T01:13:20.827Z,82.60
2018-08-09T01:15:48.367Z,82.20
2018-08-09T01:18:15.878Z,82.40
2018-08-09T01:20:43.406Z,82.30
2018-08-09T01:23:10.962Z,82.20
2018-08-09T01:25:38.454Z,81.70
2018-08-09T01:28:06.223Z,81.50
2018-08-09T01:30:33.750Z,82.20
2018-08-09T01:33:01.234Z,82.50
2018-08-09T01:35:28.709Z,82.70
2018-08-09T01:37:56.246Z,82.60
2018-08-09T01:40:23.738Z,82.30
2018-08-09T01:43:02.608Z,81.90
2018-08-09T01:45:30.121Z,81.50
2018-08-09T01:47:57.619Z,81.50
2018-08-09T01:50:25.112Z,81.60
2018-08-09T01:52:52.619Z,81.70
2018-08-09T01:55:20.089Z,81.90
2018-08-09T01:57:47.589Z,81.80
2018-08-09T02:00:15.078Z,81.80
2018-08-09T02:02:42.544Z,81.80
2018-08-09T02:05:10.356Z,81.80
2018-08-09T02:07:37.851Z,81.70
2018-08-09T02:10:05.356Z,81.70
2018-08-09T02:12:32.836Z,81.60
2018-08-09T02:15:00.292Z,81.50
2018-08-09T02:17:27.812Z,81.70
2018-08-09T02:19:55.376Z,81.70
2018-08-09T02:22:22.848Z,81.40
2018-08-09T02:24:50.370Z,81.40
2018-08-09T02:27:17.851Z,81.40
2018-08-09T02:29:45.326Z,81.40
2018-08-09T02:32:12.808Z,81.50
2018-08-09T02:34:40.304Z,81.40
2018-08-09T02:37:07.880Z,81.40
2018-08-09T02:39:35.394Z,81.40
2018-08-09T02:42:02.922Z,81.60
2018-08-09T02:44:30.414Z,81.90
2018-08-09T02:46:57.954Z,81.70
2018-08-09T02:49:25.481Z,81.80
2018-08-09T02:51:53.012Z,81.80
2018-08-09T02:54:20.502Z,81.80
2018-08-09T02:56:48.290Z,81.70
2018-08-09T02:59:16.056Z,81.70
2018-08-09T03:01:43.680Z,81.90
2018-08-09T03:04:11.285Z,82.40
2018-08-09T03:06:38.759Z,82.80
2018-08-09T03:09:08.741Z,83.10
2018-08-09T03:11:36.269Z,83.00
2018-08-09T03:14:03.764Z,82.90
2018-08-09T03:16:31.270Z,82.60
2018-08-09T03:18:58.764Z,82.20
2018-08-09T03:21:26.228Z,82.40
2018-08-09T03:23:53.726Z,82.40
2018-08-09T03:26:21.219Z,83.00
2018-08-09T03:28:48.742Z,83.90
2018-08-09T03:31:16.243Z,84.20
2018-08-09T03:33:43.748Z,84.00
2018-08-09T03:36:11.284Z,83.80
2018-08-09T03:38:38.774Z,83.80
2018-08-09T03:41:06.633Z,83.80
2018-08-09T03:43:34.122Z,83.80
2018-08-09T03:46:01.658Z,83.80
2018-08-09T03:48:29.137Z,83.90
2018-08-09T03:50:56.618Z,83.80
2018-08-09T03:53:24.144Z,83.80
2018-08-09T03:55:51.619Z,84.20
2018-08-09T03:58:19.210Z,84.10
2018-08-09T04:00:46.614Z,84.00
2018-08-09T04:03:14.132Z,83.80
2018-08-09T04:05:41.636Z,83.80
2018-08-09T04:08:09.152Z,83.80
2018-08-09T04:10:36.647Z,83.90
2018-08-09T04:13:04.211Z,84.00
2018-08-09T04:15:31.714Z,83.60
2018-08-09T04:17:59.208Z,83.20
2018-08-09T04:20:26.704Z,83.40
2018-08-09T04:22:54.203Z,83.60
2018-08-09T04:25:21.687Z,83.40
2018-08-09T04:27:49.150Z,83.40
2018-08-09T04:30:16.670Z,83.00
2018-08-09T04:32:44.168Z,82.60
2018-08-09T04:35:11.660Z,82.40
2018-08-09T04:37:39.187Z,82.40
2018-08-09T04:40:06.765Z,82.20
2018-08-09T04:42:34.233Z,82.40
2018-08-09T04:45:01.788Z,82.30
2018-08-09T04:47:29.261Z,82.00
2018-08-09T04:49:56.732Z,81.80
2018-08-09T04:52:24.230Z,81.50
2018-08-09T04:54:51.722Z,81.30
2018-08-09T04:57:19.205Z,81.20
2018-08-09T04:59:46.759Z,80.80
2018-08-09T05:02:14.283Z,80.40
2018-08-09T05:04:41.801Z,80.90
2018-08-09T05:07:09.327Z,79.60
2018-08-09T05:09:36.814Z,79.30
2018-08-09T05:12:04.334Z,78.90
2018-08-09T05:14:31.865Z,78.70
2018-08-09T05:16:59.365Z,78.90
2018-08-09T05:19:26.887Z,79.30
2018-08-09T05:21:54.391Z,79.10
2018-08-09T05:24:21.875Z,78.70
2018-08-09T05:26:49.369Z,78.30
2018-08-09T05:29:16.943Z,77.70
2018-08-09T05:31:44.496Z,77.30
2018-08-09T05:34:12.025Z,76.90
2018-08-09T05:36:39.489Z,76.70
2018-08-09T05:39:09.243Z,76.70
2018-08-09T05:41:36.847Z,76.30
2018-08-09T05:44:04.588Z,76.10
2018-08-09T05:46:32.229Z,76.10
2018-08-09T05:48:59.848Z,75.90
2018-08-09T05:51:27.710Z,75.70
2018-08-09T05:53:55.209Z,75.60
2018-08-09T05:56:22.730Z,75.20
2018-08-09T05:58:50.295Z,75.10
2018-08-09T06:01:19.980Z,74.90
2018-08-09T06:03:47.507Z,74.90
2018-08-09T06:06:15.019Z,75.40
2018-08-09T06:08:42.552Z,75.50
2018-08-09T06:11:10.076Z,75.60
2018-08-09T06:13:37.643Z,75.40
2018-08-09T06:16:05.463Z,75.30
2018-08-09T06:18:32.949Z,75.10
2018-08-09T06:21:00.456Z,75.10
2018-08-09T06:23:28.008Z,75.20
2018-08-09T06:25:55.568Z,75.20
2018-08-09T06:28:23.101Z,75.20
2018-08-09T06:30:50.707Z,75.20
2018-08-09T06:33:18.200Z,75.30
2018-08-09T06:35:46.435Z,75.30
2018-08-09T06:38:14.145Z,75.10
2018-08-09T06:40:41.687Z,75.20
2018-08-09T06:43:09.277Z,76.00
2018-08-09T06:45:36.767Z,75.10
2018-08-09T06:48:04.358Z,74.80
2018-08-09T06:50:31.855Z,74.60
2018-08-09T06:52:59.373Z,74.40
2018-08-09T06:55:26.930Z,74.20
2018-08-09T06:57:54.439Z,74.30
2018-08-09T07:00:21.951Z,74.40
2018-08-09T07:02:49.434Z,74.10
2018-08-09T07:05:16.932Z,73.80
2018-08-09T07:07:44.428Z,73.90
2018-08-09T07:10:11.927Z,73.80
2018-08-09T07:12:39.453Z,73.80
2018-08-09T07:15:09.399Z,73.60
2018-08-09T07:17:36.980Z,73.40
2018-08-09T07:20:05.365Z,73.40
2018-08-09T07:22:32.837Z,73.40
2018-08-09T07:25:00.327Z,73.40
2018-08-09T07:27:27.799Z,73.60
2018-08-09T07:29:55.272Z,73.60
2018-08-09T07:32:22.796Z,74.50
2018-08-09T07:34:50.299Z,73.80
2018-08-09T07:37:24.357Z,73.70
2018-08-09T07:39:51.961Z,73.60
2018-08-09T07:42:19.333Z,73.60
2018-08-09T07:44:46.989Z,73.80
2018-08-09T07:47:14.507Z,74.30
2018-08-09T07:49:41.984Z,74.50
2018-08-09T07:52:09.566Z,75.00
2018-08-09T07:54:37.079Z,75.20
2018-08-09T07:57:04.661Z,75.10
2018-08-09T07:59:32.160Z,75.00
2018-08-09T08:01:59.662Z,74.70
2018-08-09T08:04:27.178Z,74.60
2018-08-09T08:06:54.759Z,74.40
2018-08-09T08:09:22.260Z,74.50
2018-08-09T08:11:49.787Z,75.00
2018-08-09T08:14:17.331Z,75.60
2018-08-09T08:16:44.824Z,76.30
2018-08-09T08:19:12.424Z,76.80
2018-08-09T08:21:40.013Z,77.00
2018-08-09T08:24:07.542Z,77.30
2018-08-09T08:26:35.647Z,76.90
2018-08-09T08:29:03.234Z,76.60
2018-08-09T08:31:30.778Z,76.50
2018-08-09T08:33:58.273Z,76.30
2018-08-09T08:36:25.841Z,75.90
2018-08-09T08:38:53.390Z,75.70
2018-08-09T08:41:20.929Z,75.40
2018-08-09T08:43:48.461Z,74.90
2018-08-09T08:46:16.187Z,74.50
2018-08-09T08:48:43.760Z,74.00
2018-08-09T08:51:11.317Z,73.70
2018-08-09T08:53:38.881Z,73.40
2018-08-09T08:56:06.448Z,73.30
2018-08-09T08:58:34.393Z,73.10
2018-08-09T09:01:02.091Z,73.30
2018-08-09T09:03:30.795Z,72.90
2018-08-09T09:05:58.392Z,72.70
2018-08-09T09:08:25.942Z,72.70
2018-08-09T09:10:55.096Z,72.50
2018-08-09T09:13:23.316Z,72.50
2018-08-09T09:15:50.951Z,72.60
2018-08-09T09:18:18.449Z,72.50
2018-08-09T09:20:46.016Z,72.50
2018-08-09T09:23:13.508Z,72.70
2018-08-09T09:25:41.021Z,73.30
2018-08-09T09:28:08.537Z,73.80
2018-08-09T09:30:36.081Z,74.30
2018-08-09T09:33:03.662Z,75.30
2018-08-09T09:35:31.169Z,75.80
2018-08-09T09:37:58.638Z,76.50
2018-08-09T09:40:26.136Z,77.10
2018-08-09T09:42:53.647Z,77.70
2018-08-09T09:45:21.146Z,78.70
2018-08-09T09:47:48.827Z,78.50
2018-08-09T09:50:16.401Z,79.30
2018-08-09T09:52:43.888Z,79.30
2018-08-09T09:55:11.365Z,79.40
2018-08-09T09:57:38.881Z,79.70
2018-08-09T10:00:11.947Z,80.30
2018-08-09T10:02:39.463Z,81.10
2018-08-09T10:05:07.013Z,81.40
2018-08-09T10:07:34.483Z,81.60
2018-08-09T10:10:02.009Z,81.60
2018-08-09T10:12:29.493Z,82.30
2018-08-09T10:14:56.995Z,82.50
2018-08-09T10:17:24.532Z,82.90
2018-08-09T10:19:52.061Z,83.50
2018-08-09T10:22:19.538Z,84.10
2018-08-09T10:24:47.121Z,84.30
2018-08-09T10:27:14.583Z,84.80
2018-08-09T10:29:42.063Z,85.10
2018-08-09T10:32:09.595Z,85.40
2018-08-09T10:34:37.073Z,85.90
2018-08-09T10:37:04.547Z,86.20
2018-08-09T10:39:32.050Z,86.80
2018-08-09T10:41:59.553Z,87.10
2018-08-09T10:44:27.024Z,87.50
2018-08-09T10:46:54.549Z,87.60
2018-08-09T10:49:22.014Z,88.00
2018-08-09T10:51:49.533Z,88.10
2018-08-09T10:54:17.039Z,88.30
2018-08-09T10:56:44.621Z,89.00
2018-08-09T10:59:12.146Z,89.60
2018-08-09T11:01:39.681Z,89.60
2018-08-09T11:04:07.199Z,89.80
2018-08-09T11:06:34.661Z,89.80
2018-08-09T11:09:02.310Z,89.80
2018-08-09T11:11:29.802Z,89.80
2018-08-09T11:13:57.296Z,89.90
2018-08-09T11:16:24.868Z,90.00
2018-08-09T11:18:52.376Z,90.00
2018-08-09T11:21:19.902Z,89.90
2018-08-09T11:23:47.411Z,89.90
2018-08-09T11:26:14.900Z,89.60
2018-08-09T11:28:42.395Z,89.10
2018-08-09T11:31:09.916Z,89.70
2018-08-09T11:33:37.432Z,88.90
2018-08-09T11:36:05.022Z,88.90
2018-08-09T11:38:32.761Z,89.30
2018-08-09T11:41:00.240Z,89.30
2018-08-09T11:43:27.729Z,89.30
2018-08-09T11:45:55.287Z,89.50
2018-08-09T11:48:22.822Z,89.60
2018-08-09T11:50:50.332Z,90.40
2018-08-09T11:53:17.825Z,90.00
2018-08-09T11:55:45.313Z,90.10
2018-08-09T11:58:12.818Z,90.10
2018-08-09T12:00:40.320Z,90.10
2018-08-09T12:03:07.816Z,90.30
2018-08-09T12:05:35.322Z,91.00
2018-08-09T12:08:02.830Z,90.90
2018-08-09T12:10:30.350Z,90.90
2018-08-09T12:12:57.893Z,91.20
2018-08-09T12:15:25.491Z,91.30
2018-08-09T12:17:53.000Z,91.30
2018-08-09T12:20:20.533Z,91.50
2018-08-09T12:22:48.090Z,91.40
2018-08-09T12:25:15.698Z,91.30
2018-08-09T12:27:43.242Z,91.30
2018-08-09T12:30:12.646Z,91.40
2018-08-09T12:32:40.241Z,91.60
2018-08-09T12:35:09.046Z,92.10
2018-08-09T12:37:36.552Z,91.60
2018-08-09T12:40:05.352Z,91.70
2018-08-09T12:42:32.978Z,91.70
2018-08-09T12:45:00.564Z,91.90
2018-08-09T12:47:28.140Z,91.90
2018-08-09T12:49:55.635Z,92.00
2018-08-09T12:52:23.176Z,92.20
2018-08-09T12:54:50.751Z,92.50
2018-08-09T12:57:18.310Z,92.50
2018-08-09T12:59:45.835Z,92.70
2018-08-09T13:02:13.365Z,92.60
2018-08-09T13:04:40.932Z,92.60
2018-08-09T13:07:08.506Z,92.70
2018-08-09T13:09:35.993Z,92.80
2018-08-09T13:12:03.575Z,93.00
2018-08-09T13:14:31.307Z,93.20
2018-08-09T13:16:58.899Z,93.00
2018-08-09T13:19:26.440Z,92.90
2018-08-09T13:21:54.044Z,92.80
2018-08-09T13:24:22.644Z,92.50
2018-08-09T13:26:50.222Z,92.10
2018-08-09T13:29:17.762Z,92.00
2018-08-09T13:31:45.298Z,91.90
2018-08-09T13:34:12.864Z,92.10
2018-08-09T13:36:40.422Z,92.10
2018-08-09T13:39:10.453Z,91.80
2018-08-09T13:41:37.944Z,91.90
2018-08-09T13:44:05.761Z,92.20
2018-08-09T13:46:33.357Z,92.10
2018-08-09T13:49:00.816Z,91.80
2018-08-09T13:51:28.379Z,91.80
2018-08-09T13:53:55.922Z,91.80
2018-08-09T13:56:23.426Z,91.50
2018-08-09T13:58:51.022Z,91.00
2018-08-09T14:01:18.631Z,90.50
2018-08-09T14:03:46.165Z,90.00
2018-08-09T14:06:13.732Z,90.40
2018-08-09T14:08:41.253Z,90.10
2018-08-09T14:11:08.819Z,90.40
2018-08-09T14:13:36.389Z,90.60
2018-08-09T14:16:03.978Z,90.80
2018-08-09T14:18:31.502Z,91.20
2018-08-09T14:20:59.058Z,91.20
2018-08-09T14:23:26.598Z,91.10
2018-08-09T14:25:54.173Z,90.60
2018-08-09T14:28:21.748Z,90.70
2018-08-09T14:30:49.343Z,90.60
2018-08-09T14:33:16.840Z,90.10
2018-08-09T14:35:44.321Z,90.10
2018-08-09T14:38:11.875Z,89.60
2018-08-09T14:40:39.452Z,89.30
2018-08-09T14:43:07.169Z,90.00
2018-08-09T14:45:34.768Z,90.10
2018-08-09T14:48:02.359Z,90.00
2018-08-09T14:50:29.931Z,90.30
2018-08-09T14:52:57.435Z,90.10
2018-08-09T14:55:24.934Z,90.60
2018-08-09T14:57:52.510Z,90.70
2018-08-09T15:00:20.287Z,90.70
2018-08-09T15:02:48.112Z,89.70
2018-08-09T15:05:16.465Z,90.10
2018-08-09T15:07:44.388Z,89.80
2018-08-09T15:10:12.740Z,90.10
2018-08-09T15:12:40.373Z,90.20
2018-08-09T15:15:09.438Z,90.60
2018-08-09T15:17:37.012Z,90.60
2018-08-09T15:20:06.543Z,90.60
2018-08-09T15:22:34.513Z,91.00
2018-08-09T15:25:02.070Z,90.50
2018-08-09T15:27:29.637Z,90.60
2018-08-09T15:29:57.219Z,90.60
2018-08-09T15:32:25.012Z,90.80
2018-08-09T15:34:53.059Z,91.20
2018-08-09T15:37:20.713Z,91.60
2018-08-09T15:39:48.216Z,91.90
2018-08-09T15:42:15.816Z,92.00
2018-08-09T15:44:43.370Z,92.40
2018-08-09T15:47:11.114Z,92.20
2018-08-09T15:49:38.641Z,92.00
2018-08-09T15:52:06.397Z,92.30
2018-08-09T15:54:33.909Z,91.70
2018-08-09T15:57:01.561Z,91.70
2018-08-09T15:59:29.165Z,91.70
2018-08-09T16:01:56.744Z,91.70
2018-08-09T16:04:24.630Z,91.70
2018-08-09T16:06:52.195Z,91.70
2018-08-09T16:09:19.752Z,91.30
2018-08-09T16:11:47.417Z,90.60
2018-08-09T16:14:15.048Z,90.40
2018-08-09T16:16:42.628Z,90.30
2018-08-09T16:19:10.308Z,89.40
2018-08-09T16:21:37.908Z,89.80
2018-08-09T16:24:05.629Z,90.00
2018-08-09T16:26:33.544Z,90.00
2018-08-09T16:29:04.028Z,90.10
2018-08-09T16:31:31.627Z,90.10
2018-08-09T16:33:59.293Z,90.20
2018-08-09T16:36:26.853Z,90.30
2018-08-09T16:38:54.371Z,90.20
2018-08-09T16:41:22.022Z,90.40
2018-08-09T16:43:49.598Z,90.60
2018-08-09T16:46:17.217Z,90.50
2018-08-09T16:48:44.925Z,90.50
2018-08-09T16:51:12.489Z,90.60
2018-08-09T16:53:40.124Z,90.60
2018-08-09T16:56:07.769Z,90.80
2018-08-09T16:58:36.317Z,90.80
2018-08-09T17:01:03.889Z,90.90
2018-08-09T17:03:31.448Z,91.70
2018-08-09T17:05:59.086Z,92.40
2018-08-09T17:08:26.705Z,93.50
2018-08-09T17:10:54.341Z,95.80
2018-08-09T17:13:21.956Z,94.90
2018-08-09T17:15:49.615Z,97.20
2018-08-09T17:18:17.260Z,97.10
2018-08-09T17:20:45.018Z,97.50
2018-08-09T17:23:12.679Z,97.80
2018-08-09T17:25:40.389Z,97.80
2018-08-09T17:28:07.987Z,98.30
2018-08-09T17:30:35.688Z,99.10
2018-08-09T17:33:03.302Z,99.50
2018-08-09T17:35:30.936Z,99.50
2018-08-09T17:37:58.578Z,99.90
2018-08-09T17:40:28.828Z,99.90
2018-08-09T17:42:57.430Z,99.90
2018-08-09T17:45:30.404Z,99.90
2018-08-09T17:47:58.281Z,99.90
2018-08-09T17:50:26.070Z,99.90
2018-08-09T17:52:54.820Z,99.90
2018-08-09T17:55:22.373Z,99.90
2018-08-09T17:57:49.983Z,99.90
2018-08-09T18:00:19.944Z,99.90
2018-08-09T18:02:47.554Z,99.90
2018-08-09T18:05:15.221Z,99.90
2018-08-09T18:07:43.390Z,99.90
2018-08-09T18:10:19.514Z,99.90
2018-08-09T18:12:47.570Z,99.90
2018-08-09T18:15:15.734Z,99.90
2018-08-09T18:17:43.310Z,99.90
2018-08-09T18:20:13.328Z,99.90
2018-08-09T18:22:41.397Z,99.90
2018-08-09T18:25:10.368Z,99.90
2018-08-09T18:27:38.059Z,99.90
2018-08-09T18:30:16.965Z,99.90
2018-08-09T18:32:44.696Z,99.90
2018-08-09T18:35:14.318Z,99.90
2018-08-09T18:37:41.924Z,99.90
2018-08-09T18:40:13.258Z,99.90
2018-08-09T18:42:40.833Z,99.90
2018-08-09T18:45:09.467Z,99.90
2018-08-09T18:47:37.778Z,99.90
2018-08-09T18:50:08.497Z,99.90
2018-08-09T18:52:36.087Z,99.90
2018-08-09T18:55:04.009Z,99.90
2018-08-09T18:57:31.576Z,99.90
2018-08-09T18:59:59.106Z,99.90
2018-08-09T19:02:26.656Z,99.90
2018-08-09T19:04:54.208Z,99.90
2018-08-09T19:07:21.806Z,99.90
2018-08-09T19:09:49.386Z,99.90
2018-08-09T19:12:17.005Z,99.90
2018-08-09T19:14:44.611Z,99.90
2018-08-09T19:17:12.222Z,99.90
2018-08-09T19:19:39.803Z,99.90
2018-08-09T19:22:07.395Z,99.90
2018-08-09T19:24:34.989Z,99.90
2018-08-09T19:27:02.684Z,99.90
2018-08-09T19:29:30.226Z,99.90
2018-08-09T19:31:57.774Z,99.90
2018-08-09T19:34:25.368Z,99.90
2018-08-09T19:36:52.902Z,99.90
2018-08-09T19:39:20.509Z,99.90
2018-08-09T19:41:48.094Z,99.90
2018-08-09T19:44:15.628Z,99.90
2018-08-09T19:46:43.256Z,99.90
2018-08-09T19:49:10.950Z,99.90
2018-08-09T19:51:38.699Z,99.90
2018-08-09T19:54:07.322Z,99.90
2018-08-09T19:56:34.978Z,99.90
2018-08-09T19:59:02.629Z,99.90
2018-08-09T20:01:30.328Z,99.90
2018-08-09T20:03:57.889Z,99.90
2018-08-09T20:06:25.460Z,99.90
2018-08-09T20:08:53.048Z,99.90
2018-08-09T20:11:21.849Z,99.90
2018-08-09T20:13:49.677Z,99.90
2018-08-09T20:16:17.510Z,99.90
2018-08-09T20:18:45.131Z,99.90
2018-08-09T20:21:12.733Z,99.90
2018-08-09T20:23:40.319Z,99.90
2018-08-09T20:26:08.097Z,99.90
2018-08-09T20:28:35.781Z,99.90
2018-08-09T20:31:03.734Z,99.90
2018-08-09T20:33:31.239Z,99.90
2018-08-09T20:35:59.451Z,99.90
2018-08-09T20:38:27.021Z,99.90
2018-08-09T20:40:54.702Z,99.90
2018-08-09T20:43:22.297Z,99.90
2018-08-09T20:45:49.862Z,99.90
2018-08-09T20:48:19.067Z,99.90
2018-08-09T20:50:46.629Z,99.90
2018-08-09T20:53:14.310Z,99.90
2018-08-09T20:55:41.860Z,99.90
2018-08-09T20:58:09.544Z,99.90
2018-08-09T21:00:37.161Z,99.90
2018-08-09T21:03:05.076Z,99.90
2018-08-09T21:05:34.507Z,99.90
2018-08-09T21:08:02.154Z,99.90
2018-08-09T21:10:30.203Z,99.90
2018-08-09T21:12:58.063Z,99.90
2018-08-09T21:15:25.769Z,99.90
2018-08-09T21:17:53.345Z,99.90
2018-08-09T21:20:20.981Z,99.90
2018-08-09T21:22:49.231Z,99.90
2018-08-09T21:25:16.899Z,99.90
2018-08-09T21:27:45.083Z,99.90
2018-08-09T21:30:15.555Z,99.90
2018-08-09T21:32:43.745Z,99.90
2018-08-09T21:35:11.359Z,99.90
2018-08-09T21:37:39.967Z,99.90
2018-08-09T21:40:08.882Z,99.90
2018-08-09T21:42:36.793Z,99.90
2018-08-09T21:45:06.478Z,99.90
2018-08-09T21:47:34.486Z,99.90
2018-08-09T21:50:02.045Z,99.90
2018-08-09T21:52:29.723Z,99.90
2018-08-09T21:54:57.232Z,99.90
2018-08-09T21:57:24.808Z,99.90
2018-08-09T21:59:52.345Z,99.90
2018-08-09T22:02:20.064Z,99.90
2018-08-09T22:06:55.739Z,99.90
2018-08-09T22:09:28.941Z,99.90
2018-08-09T22:12:02.133Z,99.90
2018-08-09T22:14:35.330Z,99.90
2018-08-09T22:17:08.615Z,99.90
2018-08-09T22:19:41.845Z,99.90
2018-08-09T22:22:11.137Z,99.90
2018-08-09T22:24:39.087Z,99.90
2018-08-09T22:27:07.235Z,99.90
2018-08-09T22:29:34.827Z,99.90
2018-08-09T22:32:02.381Z,99.90
2018-08-09T22:34:29.893Z,99.90
2018-08-09T22:36:57.446Z,99.90
2018-08-09T22:39:25.060Z,99.90
2018-08-09T22:41:52.623Z,99.90
2018-08-09T22:44:20.267Z,99.90
2018-08-09T22:46:47.999Z,99.90
2018-08-09T22:49:15.777Z,99.90
2018-08-09T22:51:43.325Z,99.90
2018-08-09T22:54:10.855Z,99.90
2018-08-09T22:56:38.387Z,99.90
2018-08-09T22:59:05.951Z,99.90
2018-08-09T23:01:33.501Z,99.90
2018-08-09T23:04:01.022Z,99.90
2018-08-09T23:06:28.825Z,99.90
2018-08-09T23:08:56.402Z,99.90
2018-08-09T23:11:23.971Z,99.90
2018-08-09T23:13:51.516Z,99.90
2018-08-09T23:16:19.158Z,99.90
2018-08-09T23:18:46.760Z,99.90
2018-08-09T23:21:14.881Z,99.90
2018-08-09T23:23:42.494Z,99.90
2018-08-09T23:26:10.023Z,99.90
2018-08-09T23:28:37.604Z,99.90
2018-08-09T23:31:05.260Z,99.90
2018-08-09T23:33:32.798Z,99.90
2018-08-09T23:36:00.376Z,99.90
2018-08-09T23:38:27.886Z,99.90
2018-08-09T23:40:55.388Z,99.90
2018-08-09T23:43:22.962Z,99.90
2018-08-09T23:45:50.478Z,99.90
2018-08-09T23:48:17.966Z,99.90
2018-08-09T23:50:45.514Z,99.90
2018-08-09T23:53:13.129Z,99.90
2018-08-09T23:55:40.668Z,99.90
2018-08-09T23:58:08.179Z,99.90
